createdAt,value
2022-08-04T00:00:32.010Z,5.40
2022-08-04T00:03:14.625Z,5.60
2022-08-04T00:05:56.010Z,5.93
2022-08-04T00:08:37.453Z,5.47
2022-08-04T00:11:08.200Z,6.30
2022-08-04T00:13:57.999Z,5.50
2022-08-04T00:16:37.567Z,5.60
2022-08-04T00:19:13.306Z,5.40
2022-08-04T00:21:46.897Z,5.57
2022-08-04T00:24:17.209Z,5.60
2022-08-04T00:26:47.695Z,5.80
2022-08-04T00:29:16.734Z,5.10
2022-08-04T00:31:54.858Z,5.73
2022-08-04T00:34:28.886Z,5.70
2022-08-04T00:36:58.042Z,5.57
2022-08-04T00:39:27.643Z,5.00
2022-08-04T00:42:22.074Z,5.57
2022-08-04T00:45:04.294Z,6.00
2022-08-04T00:47:59.149Z,5.33
2022-08-04T00:50:38.755Z,5.33
2022-08-04T00:53:11.364Z,5.60
2022-08-04T00:55:59.182Z,5.17
2022-08-04T00:58:43.848Z,5.50
2022-08-04T01:01:30.240Z,5.63
2022-08-04T01:04:04.867Z,5.30
2022-08-04T01:06:44.089Z,4.83
2022-08-04T01:09:33.246Z,4.73
2022-08-04T01:12:28.029Z,5.77
2022-08-04T01:15:06.319Z,5.43
2022-08-04T01:17:55.292Z,7.40
2022-08-04T01:20:27.037Z,5.93
2022-08-04T01:23:32.311Z,5.60
2022-08-04T01:26:40.373Z,6.37
2022-08-04T01:29:15.851Z,5.47
2022-08-04T01:31:54.384Z,6.43
2022-08-04T01:34:24.318Z,6.00
2022-08-04T01:37:01.071Z,6.70
2022-08-04T01:39:42.888Z,6.13
2022-08-04T01:42:31.486Z,6.53
2022-08-04T01:45:03.817Z,6.47
2022-08-04T01:47:35.296Z,6.73
2022-08-04T01:50:09.756Z,5.87
2022-08-04T01:52:39.103Z,5.37
2022-08-04T01:55:10.278Z,5.77
2022-08-04T01:57:43.586Z,5.63
2022-08-04T02:00:15.863Z,6.07
2022-08-04T02:02:45.477Z,6.33
2022-08-04T02:05:17.478Z,6.40
2022-08-04T02:07:56.319Z,6.00
2022-08-04T02:10:30.597Z,6.50
2022-08-04T02:13:11.398Z,5.70
2022-08-04T02:15:50.907Z,6.47
2022-08-04T02:18:24.438Z,6.37
2022-08-04T02:20:59.048Z,5.83
2022-08-04T02:23:32.897Z,6.00
2022-08-04T02:26:04.032Z,5.70
2022-08-04T02:28:37.280Z,6.33
2022-08-04T02:31:16.782Z,5.77
2022-08-04T02:33:48.267Z,5.87
2022-08-04T02:36:25.076Z,5.30
2022-08-04T02:38:57.725Z,6.10
2022-08-04T02:41:28.219Z,5.40
2022-08-04T02:43:58.775Z,6.17
2022-08-04T02:46:30.265Z,5.83
2022-08-04T02:48:58.528Z,5.53
2022-08-04T02:51:30.212Z,6.20
2022-08-04T02:53:59.681Z,5.90
2022-08-04T02:56:30.335Z,5.90
2022-08-04T02:59:03.018Z,5.60
2022-08-04T03:01:33.475Z,5.70
2022-08-04T03:04:24.547Z,5.20
2022-08-04T03:07:30.606Z,5.47
2022-08-04T03:10:37.835Z,5.67
2022-08-04T03:13:48.711Z,5.97
2022-08-04T03:17:00.618Z,5.83
2022-08-04T03:19:55.815Z,5.60
2022-08-04T03:23:12.413Z,6.20
2022-08-04T03:26:31.844Z,6.07
2022-08-04T03:29:36.594Z,5.83
2022-08-04T03:32:53.605Z,6.00
2022-08-04T03:36:01.316Z,5.73
2022-08-04T03:38:57.620Z,5.73
2022-08-04T03:41:51.656Z,5.47
2022-08-04T03:44:59.735Z,5.50
2022-08-04T03:47:48.689Z,5.63
2022-08-04T03:50:47.835Z,5.40
2022-08-04T03:53:29.492Z,6.50
2022-08-04T03:56:33.816Z,5.90
2022-08-04T03:59:25.613Z,5.60
2022-08-04T04:02:44.147Z,5.60
2022-08-04T04:06:00.269Z,5.60
2022-08-04T04:09:00.524Z,5.23
2022-08-04T04:11:56.360Z,5.30
2022-08-04T04:14:49.836Z,5.93
2022-08-04T04:17:47.162Z,5.63
2022-08-04T04:20:34.535Z,5.60
2022-08-04T04:23:16.728Z,5.50
2022-08-04T04:25:57.230Z,5.53
2022-08-04T04:28:43.695Z,5.70
2022-08-04T04:31:36.036Z,5.60
2022-08-04T04:34:10.145Z,6.47
2022-08-04T04:36:50.633Z,5.60
2022-08-04T04:39:30.109Z,6.27
2022-08-04T04:42:22.014Z,5.93
2022-08-04T04:45:14.148Z,6.33
2022-08-04T04:48:08.164Z,6.53
2022-08-04T04:50:54.541Z,6.90
2022-08-04T04:53:28.892Z,7.33
2022-08-04T04:56:04.786Z,6.33
2022-08-04T04:58:35.942Z,6.90
2022-08-04T05:01:29.942Z,6.53
2022-08-04T05:04:38.024Z,7.00
2022-08-04T05:07:44.456Z,6.97
2022-08-04T05:10:27.909Z,7.03
2022-08-04T05:14:31.966Z,6.27
2022-08-04T05:15:59.032Z,6.97
2022-08-04T05:18:32.137Z,6.33
2022-08-04T05:21:11.408Z,6.73
2022-08-04T05:23:50.318Z,5.90
2022-08-04T05:26:25.075Z,6.90
2022-08-04T05:28:56.118Z,6.60
2022-08-04T05:31:28.435Z,6.17
2022-08-04T05:33:59.785Z,6.70
2022-08-04T05:36:41.523Z,6.60
2022-08-04T05:39:15.475Z,6.70
2022-08-04T05:41:55.585Z,7.17
2022-08-04T05:44:27.760Z,7.43
2022-08-04T05:46:58.476Z,6.70
2022-08-04T05:49:28.967Z,7.13
2022-08-04T05:52:02.025Z,7.47
2022-08-04T05:54:33.432Z,7.87
2022-08-04T05:57:04.935Z,7.17
2022-08-04T05:59:34.129Z,7.90
2022-08-04T06:02:04.538Z,7.63
2022-08-04T06:04:36.428Z,7.60
2022-08-04T06:07:06.977Z,8.33
2022-08-04T06:09:35.430Z,8.13
2022-08-04T06:12:08.364Z,8.17
2022-08-04T06:14:41.951Z,8.40
2022-08-04T06:18:33.464Z,7.13
2022-08-04T06:20:19.910Z,7.73
2022-08-04T06:22:56.787Z,8.63
2022-08-04T06:25:33.713Z,8.03
2022-08-04T06:28:06.594Z,8.50
2022-08-04T06:30:37.331Z,7.60
2022-08-04T06:33:14.170Z,8.30
2022-08-04T06:35:44.213Z,8.97
2022-08-04T06:38:14.673Z,11.37
2022-08-04T06:40:43.616Z,9.00
2022-08-04T06:43:12.943Z,8.80
2022-08-04T06:45:43.125Z,9.10
2022-08-04T06:48:14.564Z,9.47
2022-08-04T06:51:28.024Z,8.60
2022-08-04T06:53:35.277Z,9.50
2022-08-04T06:56:05.124Z,9.87
2022-08-04T06:58:36.131Z,9.67
2022-08-04T07:01:06.114Z,9.23
2022-08-04T07:03:35.890Z,9.30
2022-08-04T07:06:05.848Z,9.93
2022-08-04T07:08:37.467Z,8.50
2022-08-04T07:11:07.213Z,9.53
2022-08-04T07:13:35.780Z,9.27
2022-08-04T07:16:04.331Z,8.67
2022-08-04T07:18:33.072Z,9.77
2022-08-04T07:21:02.072Z,10.37
2022-08-04T07:23:30.376Z,9.27
2022-08-04T07:26:12.063Z,9.47
2022-08-04T07:28:42.481Z,8.47
2022-08-04T07:31:34.407Z,10.30
2022-08-04T07:34:16.901Z,10.00
2022-08-04T07:36:54.952Z,9.67
2022-08-04T07:39:27.305Z,10.80
2022-08-04T07:41:59.413Z,9.23
2022-08-04T07:44:30.751Z,9.27
2022-08-04T07:46:59.427Z,9.43
2022-08-04T07:49:55.976Z,9.90
2022-08-04T07:52:17.370Z,9.20
2022-08-04T07:54:46.793Z,7.67
2022-08-04T07:57:21.104Z,8.10
2022-08-04T08:00:09.422Z,7.67
2022-08-04T08:02:38.364Z,7.57
2022-08-04T08:05:09.004Z,7.27
2022-08-04T08:07:37.812Z,7.40
2022-08-04T08:10:19.392Z,8.30
2022-08-04T08:12:51.988Z,7.13
2022-08-04T08:15:21.254Z,6.87
2022-08-04T08:17:58.731Z,6.80
2022-08-04T08:20:32.311Z,6.73
2022-08-04T08:23:02.455Z,6.30
2022-08-04T08:25:32.342Z,6.17
2022-08-04T08:28:04.291Z,5.83
2022-08-04T08:30:35.598Z,5.90
2022-08-04T08:33:07.627Z,5.40
2022-08-04T08:35:53.184Z,5.63
2022-08-04T08:38:39.069Z,5.57
2022-08-04T08:41:39.777Z,4.90
2022-08-04T08:44:37.774Z,5.30
2022-08-04T08:47:17.891Z,5.43
2022-08-04T08:50:28.592Z,5.20
2022-08-04T08:53:14.677Z,5.17
2022-08-04T08:55:54.068Z,4.80
2022-08-04T08:58:45.987Z,5.17
2022-08-04T09:01:32.718Z,5.67
2022-08-04T09:04:39.452Z,4.72
2022-08-04T09:07:19.649Z,4.77
2022-08-04T09:10:02.109Z,5.17
2022-08-04T09:12:37.264Z,5.07
2022-08-04T09:15:09.260Z,5.10
2022-08-04T09:17:44.394Z,4.60
2022-08-04T09:20:20.208Z,4.70
2022-08-04T09:22:53.064Z,4.80
2022-08-04T09:25:26.321Z,4.80
2022-08-04T09:27:56.179Z,4.45
2022-08-04T09:30:30.816Z,4.70
2022-08-04T09:33:22.817Z,3.80
2022-08-04T09:36:25.794Z,3.88
2022-08-04T09:39:10.878Z,4.00
2022-08-04T09:41:49.188Z,3.10
2022-08-04T09:44:48.881Z,3.60
2022-08-04T09:47:21.761Z,3.50
2022-08-04T09:49:59.551Z,3.90
2022-08-04T09:52:40.815Z,4.03
2022-08-04T09:55:15.350Z,3.53
2022-08-04T09:57:52.932Z,3.80
2022-08-04T10:00:40.286Z,4.33
2022-08-04T10:03:19.159Z,4.60
2022-08-04T10:06:08.106Z,4.33
2022-08-04T10:08:57.304Z,3.90
2022-08-04T10:11:55.760Z,3.70
2022-08-04T10:14:45.061Z,4.03
2022-08-04T10:17:27.654Z,3.70
2022-08-04T10:20:06.010Z,3.38
2022-08-04T10:23:02.310Z,3.03
2022-08-04T10:26:05.525Z,3.13
2022-08-04T10:28:31.757Z,3.10
2022-08-04T10:31:04.634Z,3.10
2022-08-04T10:33:39.053Z,3.15
2022-08-04T10:36:12.774Z,2.80
2022-08-04T10:38:57.926Z,2.90
2022-08-04T10:41:34.236Z,2.72
2022-08-04T10:44:24.743Z,2.70
2022-08-04T10:46:56.949Z,3.05
2022-08-04T10:49:36.288Z,2.85
2022-08-04T10:52:09.873Z,2.80
2022-08-04T10:54:49.757Z,2.80
2022-08-04T10:57:25.937Z,2.38
2022-08-04T11:00:03.706Z,2.70
2022-08-04T11:02:41.121Z,2.60
2022-08-04T11:05:26.710Z,2.65
2022-08-04T11:08:01.089Z,2.75
2022-08-04T11:10:36.420Z,3.00
2022-08-04T11:13:22.158Z,2.88
2022-08-04T11:16:00.518Z,2.97
2022-08-04T11:18:42.365Z,2.53
2022-08-04T11:21:16.721Z,2.90
2022-08-04T11:23:52.877Z,3.00
2022-08-04T11:26:30.970Z,2.90
2022-08-04T11:29:06.860Z,2.38
2022-08-04T11:31:40.511Z,2.88
2022-08-04T11:34:19.427Z,2.70
2022-08-04T11:36:53.470Z,2.97
2022-08-04T11:39:30.020Z,3.20
2022-08-04T11:42:09.238Z,3.03
2022-08-04T11:44:44.685Z,3.50
2022-08-04T11:47:31.415Z,3.25
2022-08-04T11:50:06.683Z,3.20
2022-08-04T11:52:36.965Z,3.22
2022-08-04T11:55:08.259Z,3.30
2022-08-04T11:57:38.285Z,3.13
2022-08-04T12:00:09.989Z,3.17
2022-08-04T12:03:02.781Z,3.00
2022-08-04T12:05:37.041Z,3.20
2022-08-04T12:08:22.025Z,3.20
2022-08-04T12:10:58.640Z,3.67
2022-08-04T12:13:33.834Z,3.28
2022-08-04T12:16:11.933Z,2.95
2022-08-04T12:18:44.374Z,3.20
2022-08-04T12:21:24.798Z,3.20
2022-08-04T12:24:00.820Z,3.20
2022-08-04T12:26:34.234Z,3.10
2022-08-04T12:29:10.567Z,3.22
2022-08-04T12:31:46.539Z,3.10
2022-08-04T12:34:18.450Z,3.22
2022-08-04T12:36:55.915Z,2.90
2022-08-04T12:39:27.155Z,2.90
2022-08-04T12:42:02.781Z,2.80
2022-08-04T12:44:38.233Z,3.20
2022-08-04T12:47:26.518Z,3.07
2022-08-04T12:50:02.312Z,2.70
2022-08-04T12:53:01.724Z,3.08
2022-08-04T12:55:27.032Z,3.10
2022-08-04T12:57:56.587Z,3.35
2022-08-04T13:00:31.218Z,3.00
2022-08-04T13:03:09.604Z,3.10
2022-08-04T13:05:41.356Z,3.22
2022-08-04T13:08:11.310Z,3.30
2022-08-04T13:10:41.999Z,2.88
2022-08-04T13:13:17.242Z,3.08
2022-08-04T13:15:58.052Z,3.17
2022-08-04T13:18:32.531Z,2.92
2022-08-04T13:21:16.947Z,3.22
2022-08-04T13:24:10.733Z,3.10
2022-08-04T13:26:43.349Z,3.25
2022-08-04T13:29:59.932Z,3.05
2022-08-04T13:32:17.984Z,2.95
2022-08-04T13:34:48.912Z,3.45
2022-08-04T13:37:21.469Z,3.03
2022-08-04T13:39:55.222Z,3.13
2022-08-04T13:42:26.947Z,3.05
2022-08-04T13:44:58.491Z,3.03
2022-08-04T13:47:32.080Z,3.05
2022-08-04T13:50:17.553Z,2.75
2022-08-04T13:52:47.153Z,3.00
2022-08-04T13:55:27.954Z,3.38
2022-08-04T13:58:06.317Z,3.00
2022-08-04T14:00:55.217Z,2.70
2022-08-04T14:03:31.675Z,2.97
2022-08-04T14:06:14.062Z,3.17
2022-08-04T14:08:50.462Z,3.20
2022-08-04T14:12:06.460Z,3.28
2022-08-04T14:14:18.843Z,2.90
2022-08-04T14:17:03.365Z,3.13
2022-08-04T14:19:50.930Z,3.28
2022-08-04T14:22:34.737Z,2.92
2022-08-04T14:25:06.520Z,2.85
2022-08-04T14:27:45.340Z,2.80
2022-08-04T14:30:25.279Z,3.40
2022-08-04T14:32:58.764Z,3.03
2022-08-04T14:35:49.833Z,3.40
2022-08-04T14:38:18.871Z,3.30
2022-08-04T14:40:47.084Z,3.10
2022-08-04T14:43:19.204Z,3.17
2022-08-04T14:45:54.970Z,3.30
2022-08-04T14:48:26.328Z,3.10
2022-08-04T14:50:55.920Z,3.30
2022-08-04T14:53:26.507Z,3.90
2022-08-04T14:55:57.075Z,3.85
2022-08-04T14:58:37.752Z,3.85
2022-08-04T15:01:10.502Z,3.25
2022-08-04T15:03:49.617Z,2.83
2022-08-04T15:06:23.385Z,3.05
2022-08-04T15:08:52.356Z,2.85
2022-08-04T15:11:22.846Z,3.22
2022-08-04T15:13:52.331Z,3.38
2022-08-04T15:16:20.673Z,3.15
2022-08-04T15:18:49.847Z,2.90
2022-08-04T15:21:19.096Z,2.90
2022-08-04T15:23:48.599Z,3.40
2022-08-04T15:26:23.216Z,3.03
2022-08-04T15:28:55.697Z,3.30
2022-08-04T15:32:04.051Z,3.25
2022-08-04T15:34:14.898Z,3.08
2022-08-04T15:36:56.434Z,3.13
2022-08-04T15:39:37.197Z,3.13
2022-08-04T15:42:23.605Z,3.40
2022-08-04T15:45:15.941Z,3.17
2022-08-04T15:47:53.264Z,3.15
2022-08-04T15:50:28.274Z,3.25
2022-08-04T15:53:10.439Z,3.55
2022-08-04T15:55:44.825Z,3.47
2022-08-04T15:58:17.377Z,3.25
2022-08-04T16:01:15.573Z,3.33
2022-08-04T16:03:59.550Z,3.40
2022-08-04T16:06:45.464Z,3.80
2022-08-04T16:09:45.971Z,3.30
2022-08-04T16:12:56.457Z,3.17
2022-08-04T16:15:45.182Z,3.22
2022-08-04T16:18:26.566Z,2.85
2022-08-04T16:20:56.870Z,3.28
2022-08-04T16:23:54.108Z,3.58
2022-08-04T16:27:03.519Z,3.72
2022-08-04T16:29:41.199Z,3.00
2022-08-04T16:32:18.156Z,3.35
2022-08-04T16:34:54.479Z,3.30
2022-08-04T16:37:26.643Z,3.28
2022-08-04T16:40:30.022Z,3.28
2022-08-04T16:43:13.363Z,3.60
2022-08-04T16:45:51.474Z,3.17
2022-08-04T16:48:20.587Z,3.42
2022-08-04T16:51:05.871Z,3.45
2022-08-04T16:53:52.088Z,3.33
2022-08-04T16:56:30.434Z,3.85
2022-08-04T16:59:07.270Z,3.33
2022-08-04T17:01:37.782Z,3.25
2022-08-04T17:04:06.883Z,3.50
2022-08-04T17:06:37.346Z,3.53
2022-08-04T17:09:06.972Z,3.38
2022-08-04T17:11:35.212Z,3.55
2022-08-04T17:14:05.855Z,3.78
2022-08-04T17:16:38.151Z,3.90
2022-08-04T17:19:24.438Z,3.90
2022-08-04T17:22:04.031Z,3.95
2022-08-04T17:24:33.013Z,3.30
2022-08-04T17:27:01.206Z,3.50
2022-08-04T17:29:43.234Z,3.92
2022-08-04T17:32:18.770Z,3.60
2022-08-04T17:34:50.667Z,3.88
2022-08-04T17:37:39.998Z,3.50
2022-08-04T17:40:10.364Z,4.03
2022-08-04T17:42:41.464Z,3.97
2022-08-04T17:45:49.406Z,3.83
2022-08-04T17:48:03.581Z,4.20
2022-08-04T17:50:36.054Z,4.17
2022-08-04T17:53:12.238Z,4.10
2022-08-04T17:55:42.878Z,4.20
2022-08-04T17:58:21.221Z,4.40
2022-08-04T18:00:51.934Z,4.23
2022-08-04T18:03:30.030Z,3.57
2022-08-04T18:06:03.342Z,4.23
2022-08-04T18:08:46.173Z,4.60
2022-08-04T18:11:22.000Z,4.47
2022-08-04T18:13:57.151Z,4.00
2022-08-04T18:16:27.331Z,4.50
2022-08-04T18:19:13.555Z,4.80
2022-08-04T18:21:46.997Z,4.10
2022-08-04T18:24:34.264Z,4.50
2022-08-04T18:27:06.205Z,4.87
2022-08-04T18:29:39.181Z,4.90
2022-08-04T18:34:58.584Z,4.70
2022-08-04T18:38:03.730Z,5.00
2022-08-04T18:40:26.643Z,5.53
2022-08-04T18:42:59.976Z,5.33
2022-08-04T18:45:34.117Z,5.20
2022-08-04T18:48:04.326Z,5.38
2022-08-04T18:51:09.777Z,5.07
2022-08-04T18:53:35.797Z,5.65
2022-08-04T18:56:06.333Z,5.90
2022-08-04T18:58:48.468Z,4.80
2022-08-04T19:01:16.737Z,5.83
2022-08-04T19:03:48.184Z,5.10
2022-08-04T19:06:25.785Z,4.30
2022-08-04T19:08:55.612Z,4.90
2022-08-04T19:11:37.001Z,5.00
2022-08-04T19:14:07.528Z,4.57
2022-08-04T19:16:41.465Z,4.17
2022-08-04T19:19:14.286Z,4.43
2022-08-04T19:21:59.387Z,4.80
2022-08-04T19:24:35.305Z,5.43
2022-08-04T19:27:06.584Z,5.10
2022-08-04T19:29:37.657Z,5.87
2022-08-04T19:32:15.184Z,5.10
2022-08-04T19:34:46.079Z,5.60
2022-08-04T19:37:57.207Z,5.73
2022-08-04T19:40:06.888Z,5.53
2022-08-04T19:42:35.493Z,5.33
2022-08-04T19:45:03.752Z,5.30
2022-08-04T19:48:17.827Z,5.80
2022-08-04T19:50:23.723Z,7.63
2022-08-04T19:52:53.900Z,7.23
2022-08-04T19:55:37.402Z,5.93
2022-08-04T19:58:08.929Z,6.03
2022-08-04T20:00:37.954Z,6.57
2022-08-04T20:03:09.852Z,5.77
2022-08-04T20:08:30.923Z,5.63
2022-08-04T20:11:00.252Z,5.37
2022-08-04T20:13:36.959Z,5.60
2022-08-04T20:16:28.261Z,5.50
2022-08-04T20:18:59.547Z,6.30
2022-08-04T20:21:54.300Z,6.10
2022-08-04T20:24:39.288Z,5.50
2022-08-04T20:27:14.768Z,6.07
2022-08-04T20:32:32.216Z,5.20
2022-08-04T20:35:00.538Z,5.37
2022-08-04T20:37:56.942Z,5.23
2022-08-04T20:40:19.278Z,5.03
2022-08-04T20:42:47.647Z,5.10
2022-08-04T20:45:16.870Z,5.17
2022-08-04T20:47:53.084Z,5.67
2022-08-04T20:50:29.683Z,5.00
2022-08-04T20:52:59.438Z,4.97
2022-08-04T20:55:29.682Z,5.80
2022-08-04T20:58:03.107Z,6.57
2022-08-04T21:00:32.296Z,5.23
2022-08-04T21:03:00.452Z,4.37
2022-08-04T21:05:28.658Z,5.30
2022-08-04T21:07:59.905Z,4.90
2022-08-04T21:10:29.657Z,5.10
2022-08-04T21:12:57.951Z,5.20
2022-08-04T21:15:58.821Z,5.77
2022-08-04T21:18:17.225Z,5.57
2022-08-04T21:20:47.988Z,5.90
2022-08-04T21:23:16.519Z,5.80
2022-08-04T21:25:50.898Z,5.90
2022-08-04T21:28:20.620Z,5.40
2022-08-04T21:30:52.315Z,4.90
2022-08-04T21:33:21.130Z,5.63
2022-08-04T21:35:54.221Z,5.67
2022-08-04T21:38:28.280Z,5.53
2022-08-04T21:41:01.730Z,5.13
2022-08-04T21:43:42.464Z,5.00
2022-08-04T21:46:11.910Z,4.40
2022-08-04T21:48:42.538Z,5.03
2022-08-04T21:54:04.173Z,5.10
2022-08-04T21:56:35.654Z,5.37
2022-08-04T21:59:10.591Z,5.30
2022-08-04T22:01:50.118Z,4.90
2022-08-04T22:04:19.597Z,4.83
2022-08-04T22:06:52.373Z,5.33
2022-08-04T22:09:21.761Z,4.90
2022-08-04T22:11:52.344Z,5.37
2022-08-04T22:14:27.566Z,5.20
2022-08-04T22:16:58.538Z,5.47
2022-08-04T22:19:39.596Z,4.90
2022-08-04T22:22:25.397Z,5.77
2022-08-04T22:25:12.278Z,5.43
2022-08-04T22:28:01.036Z,5.20
2022-08-04T22:30:33.140Z,5.50
2022-08-04T22:33:07.382Z,5.17
2022-08-04T22:35:43.688Z,5.37
2022-08-04T22:38:21.886Z,4.87
2022-08-04T22:41:00.561Z,4.87
2022-08-04T22:43:32.132Z,5.90
2022-08-04T22:46:01.794Z,5.27
2022-08-04T22:48:32.126Z,5.40
2022-08-04T22:51:00.760Z,5.00
2022-08-04T22:53:29.147Z,5.63
2022-08-04T22:56:06.961Z,4.97
2022-08-04T22:58:45.497Z,5.60
2022-08-04T23:01:19.515Z,4.80
2022-08-04T23:03:51.096Z,5.23
2022-08-04T23:06:25.115Z,5.10
2022-08-04T23:08:53.583Z,5.00
2022-08-04T23:11:21.773Z,5.10
2022-08-04T23:13:51.208Z,5.30
2022-08-04T23:16:21.133Z,5.43
2022-08-04T23:18:52.770Z,5.80
2022-08-04T23:21:24.256Z,5.60
2022-08-04T23:24:00.874Z,6.30
2022-08-04T23:26:31.088Z,5.70
2022-08-04T23:29:03.846Z,6.07
2022-08-04T23:31:40.870Z,5.37
2022-08-04T23:34:16.799Z,5.87
2022-08-04T23:36:47.506Z,5.53
2022-08-04T23:39:15.913Z,5.57
2022-08-04T23:41:53.612Z,4.73
2022-08-04T23:44:27.029Z,5.47
2022-08-04T23:47:00.512Z,5.07
2022-08-04T23:49:42.280Z,5.27
2022-08-04T23:52:23.069Z,5.00
2022-08-04T23:54:56.644Z,5.03
2022-08-04T23:57:31.479Z,4.93
